createdAt,value
2023-09-23T10:01:58.108Z,16.80
2023-09-23T10:04:32.751Z,16.70
2023-09-23T10:07:00.169Z,16.60
2023-09-23T10:09:31.814Z,16.60
2023-09-23T10:12:00.924Z,16.60
2023-09-23T10:14:28.094Z,16.60
2023-09-23T10:17:01.094Z,16.50
2023-09-23T10:19:34.513Z,16.40
2023-09-23T10:22:22.427Z,16.50
2023-09-23T10:25:05.770Z,16.60
2023-09-23T10:27:33.876Z,16.70
2023-09-23T10:30:05.252Z,16.80
2023-09-23T10:32:32.429Z,17.00
2023-09-23T10:35:00.358Z,17.30
2023-09-23T10:37:30.582Z,17.50
2023-09-23T10:40:10.255Z,17.50
2023-09-23T10:42:37.440Z,17.50
2023-09-23T10:45:04.719Z,17.80
2023-09-23T10:47:32.254Z,18.00
2023-09-23T10:50:07.130Z,18.20
2023-09-23T10:52:34.985Z,18.50
2023-09-23T10:55:02.362Z,18.60
2023-09-23T10:57:29.615Z,18.70
2023-09-23T11:00:00.463Z,18.80
2023-09-23T11:02:32.513Z,18.90
2023-09-23T11:05:00.851Z,18.90
2023-09-23T11:07:29.220Z,18.80
2023-09-23T11:10:00.228Z,18.60
2023-09-23T11:12:33.795Z,18.40
2023-09-23T11:15:03.832Z,18.20
2023-09-23T11:17:31.104Z,18.00
2023-09-23T11:20:11.397Z,17.80
2023-09-23T11:22:40.772Z,18.00
2023-09-23T11:25:11.889Z,18.30
2023-09-23T11:27:45.854Z,18.40
2023-09-23T11:30:13.469Z,18.60
2023-09-23T11:32:42.656Z,18.80
2023-09-23T11:35:10.210Z,18.90
2023-09-23T11:37:37.483Z,19.10
2023-09-23T11:40:05.409Z,19.00
2023-09-23T11:42:33.535Z,19.10
2023-09-23T11:45:00.810Z,19.30
2023-09-23T11:47:28.429Z,19.30
2023-09-23T11:50:09.330Z,19.30
2023-09-23T11:52:37.267Z,19.40
2023-09-23T11:55:04.522Z,19.40
2023-09-23T11:57:31.981Z,19.60
2023-09-23T12:00:03.444Z,19.60
2023-09-23T12:02:33.682Z,19.70
2023-09-23T12:05:01.208Z,19.70
2023-09-23T12:07:28.787Z,19.60
2023-09-23T12:09:56.075Z,19.50
2023-09-23T12:12:23.151Z,19.60
2023-09-23T12:14:52.268Z,19.70
2023-09-23T12:17:19.531Z,19.80
2023-09-23T12:19:46.654Z,19.90
2023-09-23T12:22:14.202Z,20.00
2023-09-23T12:24:41.184Z,20.00
2023-09-23T12:27:08.161Z,20.10
2023-09-23T12:29:36.080Z,20.10
2023-09-23T12:32:17.216Z,20.20
2023-09-23T12:34:45.420Z,20.30
2023-09-23T12:37:12.795Z,20.30
2023-09-23T12:39:40.389Z,20.30
2023-09-23T12:42:07.705Z,20.30
2023-09-23T12:44:34.871Z,20.30
2023-09-23T12:47:05.341Z,20.30
2023-09-23T12:49:32.692Z,20.20
2023-09-23T12:51:59.576Z,20.10
2023-09-23T12:54:26.859Z,20.20
2023-09-23T12:56:53.914Z,20.10
2023-09-23T12:59:22.066Z,20.20
2023-09-23T13:01:49.457Z,20.20
2023-09-23T13:04:16.468Z,20.30
2023-09-23T13:06:43.850Z,20.10
2023-09-23T13:09:10.912Z,20.10
2023-09-23T13:11:38.326Z,20.00
2023-09-23T13:14:05.689Z,20.20
2023-09-23T13:16:32.838Z,20.20
2023-09-23T13:19:00.146Z,20.20
2023-09-23T13:21:27.991Z,20.10
2023-09-23T13:23:55.136Z,20.10
2023-09-23T13:26:22.434Z,20.10
2023-09-23T13:28:49.733Z,20.10
2023-09-23T13:31:17.706Z,20.00
2023-09-23T13:33:45.146Z,20.10
2023-09-23T13:36:12.235Z,20.00
2023-09-23T13:38:39.483Z,20.00
2023-09-23T13:41:06.863Z,20.00
2023-09-23T13:43:34.211Z,19.90
2023-09-23T13:46:01.244Z,19.90
2023-09-23T13:48:28.462Z,19.80
2023-09-23T13:50:55.644Z,19.90
2023-09-23T13:53:22.687Z,19.70
2023-09-23T13:55:49.750Z,19.70
2023-09-23T13:58:17.021Z,19.70
2023-09-23T14:00:44.247Z,19.70
2023-09-23T14:03:11.437Z,19.80
2023-09-23T14:05:38.591Z,19.90
2023-09-23T14:08:06.159Z,19.70
2023-09-23T14:10:33.111Z,19.60
2023-09-23T14:13:00.126Z,19.60
2023-09-23T14:15:27.108Z,19.70
2023-09-23T14:17:54.261Z,19.50
2023-09-23T14:20:21.568Z,19.50
2023-09-23T14:22:49.711Z,19.30
2023-09-23T14:25:18.747Z,19.30
2023-09-23T14:27:45.760Z,19.40
2023-09-23T14:30:12.975Z,19.30
2023-09-23T14:32:40.274Z,19.30
2023-09-23T14:35:07.709Z,19.30
2023-09-23T14:37:35.345Z,19.30
2023-09-23T14:40:03.434Z,19.40
2023-09-23T14:42:31.515Z,19.40
2023-09-23T14:44:58.720Z,19.30
2023-09-23T14:47:27.518Z,19.30
2023-09-23T14:50:00.984Z,19.30
2023-09-23T14:52:30.736Z,19.10
2023-09-23T14:54:57.790Z,19.00
2023-09-23T14:57:25.009Z,19.00
2023-09-23T14:59:55.749Z,19.00
2023-09-23T15:02:23.317Z,19.00
2023-09-23T15:04:50.477Z,19.00
2023-09-23T15:07:19.779Z,19.00
2023-09-23T15:09:48.697Z,19.00
2023-09-23T15:12:16.863Z,19.00
2023-09-23T15:14:44.935Z,18.90
2023-09-23T15:17:13.733Z,18.80
2023-09-23T15:19:41.425Z,18.70
2023-09-23T15:22:12.318Z,18.50
2023-09-23T15:24:45.032Z,18.40
2023-09-23T15:27:13.001Z,18.30
2023-09-23T15:29:40.315Z,18.10
2023-09-23T15:32:07.567Z,18.00
2023-09-23T15:34:34.536Z,18.10
2023-09-23T15:37:01.599Z,18.10
2023-09-23T15:39:29.291Z,18.20
2023-09-23T15:41:56.718Z,18.30
2023-09-23T15:44:24.036Z,18.30
2023-09-23T15:46:51.092Z,18.40
2023-09-23T15:49:18.366Z,18.50
2023-09-23T15:51:45.663Z,18.50
2023-09-23T15:54:12.633Z,18.50
2023-09-23T15:56:41.169Z,18.50
2023-09-23T15:59:08.825Z,18.40
2023-09-23T16:01:36.560Z,18.30
2023-09-23T16:04:03.948Z,18.20
2023-09-23T16:06:31.544Z,18.20
2023-09-23T16:08:58.667Z,18.20
2023-09-23T16:11:25.840Z,18.10
2023-09-23T16:13:52.864Z,18.00
2023-09-23T16:16:20.016Z,18.00
2023-09-23T16:18:47.634Z,18.00
2023-09-23T16:21:15.294Z,18.00
2023-09-23T16:23:42.519Z,17.90
2023-09-23T16:26:09.554Z,17.80
2023-09-23T16:28:36.710Z,17.80
2023-09-23T16:31:04.920Z,17.70
2023-09-23T16:33:32.497Z,17.70
2023-09-23T16:35:59.729Z,17.60
2023-09-23T16:38:26.745Z,17.60
2023-09-23T16:40:53.829Z,17.60
2023-09-23T16:43:20.762Z,17.50
2023-09-23T16:45:50.773Z,17.50
2023-09-23T16:48:18.307Z,17.50
2023-09-23T16:50:50.202Z,17.40
2023-09-23T16:53:17.281Z,17.40
2023-09-23T16:55:45.041Z,17.30
2023-09-23T16:58:12.893Z,17.30
2023-09-23T17:00:58.006Z,17.20
2023-09-23T17:03:28.965Z,17.20
2023-09-23T17:05:56.263Z,17.00
2023-09-23T17:08:23.418Z,17.10
2023-09-23T17:10:50.847Z,17.10
2023-09-23T17:13:18.115Z,17.00
2023-09-23T17:15:45.370Z,17.00
2023-09-23T17:18:12.406Z,17.00
2023-09-23T17:20:39.692Z,17.00
2023-09-23T17:23:07.511Z,16.90
2023-09-23T17:25:35.689Z,16.90
2023-09-23T17:28:03.092Z,16.90
2023-09-23T17:30:30.079Z,16.80
2023-09-23T17:32:57.818Z,16.80
2023-09-23T17:35:24.977Z,16.80
2023-09-23T17:37:54.580Z,16.70
2023-09-23T17:40:21.926Z,16.80
2023-09-23T17:42:49.050Z,16.80
2023-09-23T17:45:16.403Z,16.80
2023-09-23T17:47:46.690Z,16.80
2023-09-23T17:50:13.746Z,16.70
2023-09-23T17:52:41.059Z,16.70
2023-09-23T17:55:08.470Z,16.80
2023-09-23T17:57:35.543Z,16.80
2023-09-23T18:00:08.859Z,16.90
2023-09-23T18:02:36.748Z,16.90
2023-09-23T18:05:03.925Z,16.90
2023-09-23T18:07:30.915Z,16.90
2023-09-23T18:09:59.857Z,16.90
2023-09-23T18:12:27.280Z,16.80
2023-09-23T18:15:00.912Z,16.80
2023-09-23T18:17:28.341Z,16.70
2023-09-23T18:19:57.295Z,16.80
2023-09-23T18:22:24.479Z,16.80
2023-09-23T18:24:51.770Z,16.70
2023-09-23T18:27:18.978Z,16.70
2023-09-23T18:29:50.392Z,16.70
2023-09-23T18:32:18.244Z,16.60
2023-09-23T18:34:46.435Z,16.60
2023-09-23T18:37:13.715Z,16.50
2023-09-23T18:39:48.136Z,16.50
2023-09-23T18:42:18.763Z,16.50
2023-09-23T18:44:45.911Z,16.40
2023-09-23T18:47:12.863Z,16.40
2023-09-23T18:49:44.837Z,16.40
2023-09-23T18:52:12.027Z,16.40
2023-09-23T18:54:39.120Z,16.40
2023-09-23T18:57:06.322Z,16.30
2023-09-23T18:59:33.362Z,16.30
2023-09-23T19:02:00.382Z,16.30
2023-09-23T19:04:27.491Z,16.40
2023-09-23T19:06:54.807Z,16.30
2023-09-23T19:09:22.079Z,16.30
2023-09-23T19:11:51.854Z,16.30
2023-09-23T19:14:20.257Z,16.20
2023-09-23T19:16:47.336Z,16.30
2023-09-23T19:19:14.992Z,16.30
2023-09-23T19:21:41.952Z,16.20
2023-09-23T19:24:09.545Z,16.10
2023-09-23T19:26:49.403Z,16.20
2023-09-23T19:29:24.521Z,16.10
2023-09-23T19:31:51.744Z,16.10
2023-09-23T19:34:18.817Z,16.10
2023-09-23T19:36:48.866Z,16.10
2023-09-23T19:39:15.911Z,16.10
2023-09-23T19:41:42.974Z,16.20
2023-09-23T19:44:09.966Z,16.10
2023-09-23T19:46:37.140Z,16.10
2023-09-23T19:49:04.400Z,16.10
2023-09-23T19:51:32.356Z,16.00
2023-09-23T19:53:59.726Z,16.00
2023-09-23T19:56:26.985Z,16.00
2023-09-23T19:58:54.087Z,16.00
2023-09-23T20:01:22.843Z,16.00
2023-09-23T20:03:51.015Z,16.00
2023-09-23T20:06:19.960Z,15.90
2023-09-23T20:08:47.376Z,15.90
2023-09-23T20:11:14.498Z,15.80
2023-09-23T20:13:41.558Z,15.80
2023-09-23T20:16:09.435Z,15.80
2023-09-23T20:18:36.981Z,15.80
2023-09-23T20:21:04.126Z,15.80
2023-09-23T20:23:32.795Z,15.70
2023-09-23T20:26:01.023Z,15.60
2023-09-23T20:28:28.465Z,15.60
2023-09-23T20:31:02.199Z,15.60
2023-09-23T20:33:29.732Z,15.50
2023-09-23T20:35:56.969Z,15.50
2023-09-23T20:38:26.793Z,15.50
2023-09-23T20:41:03.959Z,15.50
2023-09-23T20:43:31.981Z,15.50
2023-09-23T20:45:59.061Z,15.40
2023-09-23T20:48:26.252Z,15.40
2023-09-23T20:50:53.340Z,15.40
2023-09-23T20:53:20.472Z,15.30
2023-09-23T20:55:47.521Z,15.30
2023-09-23T20:58:14.670Z,15.30
2023-09-23T21:00:42.394Z,15.20
2023-09-23T21:03:10.265Z,15.20
2023-09-23T21:05:37.812Z,15.20
2023-09-23T21:08:06.414Z,15.20
2023-09-23T21:10:35.293Z,15.10
2023-09-23T21:13:02.310Z,15.10
2023-09-23T21:15:29.551Z,15.10
2023-09-23T21:17:56.812Z,15.10
2023-09-23T21:20:23.855Z,15.10
2023-09-23T21:22:50.908Z,15.10
2023-09-23T21:25:20.728Z,15.00
2023-09-23T21:27:47.738Z,15.00
2023-09-23T21:30:15.102Z,15.00
2023-09-23T21:32:42.700Z,14.90
2023-09-23T21:35:09.797Z,14.90
2023-09-23T21:37:37.093Z,14.90
2023-09-23T21:40:04.492Z,14.90
2023-09-23T21:42:31.589Z,14.80
2023-09-23T21:44:59.164Z,14.80
2023-09-23T21:47:26.489Z,14.80
2023-09-23T21:49:54.331Z,14.80
2023-09-23T21:52:21.619Z,14.80
2023-09-23T21:54:52.220Z,14.80
2023-09-23T21:57:19.445Z,14.80
2023-09-23T21:59:46.885Z,14.70
2023-09-23T22:02:15.253Z,14.70
2023-09-23T22:04:46.613Z,14.70
2023-09-23T22:07:14.007Z,14.70
2023-09-23T22:09:41.282Z,14.70
2023-09-23T22:12:08.844Z,14.70
2023-09-23T22:14:36.036Z,14.60
2023-09-23T22:17:03.338Z,14.60
2023-09-23T22:19:32.245Z,14.50
2023-09-23T22:21:59.227Z,14.50
2023-09-23T22:24:26.094Z,14.40
2023-09-23T22:26:54.883Z,14.40
2023-09-23T22:29:22.308Z,14.40
2023-09-23T22:31:49.541Z,14.40
2023-09-23T22:34:16.726Z,14.40
2023-09-23T22:36:43.873Z,14.40
2023-09-23T22:39:14.028Z,14.40
2023-09-23T22:41:41.175Z,14.40
2023-09-23T22:44:08.493Z,14.30
2023-09-23T22:46:36.917Z,14.30
2023-09-23T22:49:04.333Z,14.40
2023-09-23T22:51:32.220Z,14.30
2023-09-23T22:53:59.142Z,14.30
2023-09-23T22:56:26.599Z,14.30
2023-09-23T22:58:53.863Z,14.20
2023-09-23T23:01:21.331Z,14.30
2023-09-23T23:03:49.490Z,14.30
2023-09-23T23:06:16.824Z,14.30
2023-09-23T23:08:44.636Z,14.30
2023-09-23T23:11:12.592Z,14.30
2023-09-23T23:13:40.066Z,14.20
2023-09-23T23:16:13.777Z,14.30
2023-09-23T23:18:42.554Z,14.30
2023-09-23T23:21:09.799Z,14.20
2023-09-23T23:23:37.297Z,14.20
2023-09-23T23:26:08.224Z,14.20
2023-09-23T23:28:35.840Z,14.20
2023-09-23T23:31:05.545Z,14.20
2023-09-23T23:33:33.348Z,14.20
2023-09-23T23:36:01.843Z,14.20
2023-09-23T23:38:30.601Z,14.20
2023-09-23T23:40:59.018Z,14.20
2023-09-23T23:43:26.189Z,14.30
2023-09-23T23:46:06.174Z,14.30
2023-09-23T23:48:33.605Z,14.30
2023-09-23T23:51:11.785Z,14.30
2023-09-23T23:53:40.111Z,14.30
2023-09-23T23:56:07.589Z,14.30
2023-09-23T23:58:34.828Z,14.30
